createdAt,value
2017-08-07T00:02:15.060Z,4.27
2017-08-07T00:04:46.986Z,4.43
2017-08-07T00:07:30.767Z,5.10
2017-08-07T00:10:02.594Z,6.37
2017-08-07T00:12:33.675Z,4.90
2017-08-07T00:15:15.463Z,4.30
2017-08-07T00:17:46.562Z,3.70
2017-08-07T00:20:21.342Z,4.30
2017-08-07T00:22:52.474Z,4.40
2017-08-07T00:25:24.355Z,4.10
2017-08-07T00:27:55.435Z,4.17
2017-08-07T00:30:26.491Z,4.77
2017-08-07T00:32:57.876Z,4.80
2017-08-07T00:35:28.938Z,5.10
2017-08-07T00:38:00.785Z,5.33
2017-08-07T00:40:32.398Z,4.70
2017-08-07T00:43:04.532Z,4.73
2017-08-07T00:45:35.796Z,4.63
2017-08-07T00:48:07.073Z,5.50
2017-08-07T00:50:39.129Z,4.80
2017-08-07T00:53:10.213Z,4.87
2017-08-07T00:55:41.288Z,5.00
2017-08-07T00:58:12.930Z,5.03
2017-08-07T01:00:44.876Z,5.27
2017-08-07T01:03:16.643Z,4.90
2017-08-07T01:05:48.263Z,4.60
2017-08-07T01:08:19.387Z,4.63
2017-08-07T01:10:50.443Z,4.93
2017-08-07T01:13:21.927Z,5.67
2017-08-07T01:15:53.001Z,4.90
2017-08-07T01:18:24.096Z,4.70
2017-08-07T01:20:55.146Z,4.17
2017-08-07T01:23:26.216Z,4.83
2017-08-07T01:25:57.478Z,4.67
2017-08-07T01:28:29.300Z,4.90
2017-08-07T01:31:00.722Z,4.80
2017-08-07T01:33:32.341Z,5.33
2017-08-07T01:36:03.949Z,5.07
2017-08-07T01:38:36.023Z,5.20
2017-08-07T01:41:07.098Z,5.73
2017-08-07T01:43:38.146Z,6.90
2017-08-07T01:46:11.020Z,5.90
2017-08-07T01:48:42.110Z,5.70
2017-08-07T01:51:13.851Z,5.53
2017-08-07T01:53:44.943Z,5.30
2017-08-07T01:56:16.054Z,5.60
2017-08-07T01:58:47.146Z,7.10
2017-08-07T02:01:21.355Z,7.40
2017-08-07T02:03:53.365Z,7.03
2017-08-07T02:06:24.922Z,7.13
2017-08-07T02:08:56.909Z,6.90
2017-08-07T02:11:27.950Z,6.87
2017-08-07T02:13:59.135Z,7.00
2017-08-07T02:16:31.424Z,7.60
2017-08-07T02:19:02.464Z,8.27
2017-08-07T02:21:33.491Z,6.90
2017-08-07T02:24:05.955Z,8.67
2017-08-07T02:26:37.620Z,7.50
2017-08-07T02:29:10.812Z,36.00
2017-08-07T02:31:42.150Z,30.80
2017-08-07T02:34:13.309Z,9.00
2017-08-07T02:36:44.312Z,7.50
2017-08-07T02:39:15.379Z,9.30
2017-08-07T02:41:46.404Z,8.00
2017-08-07T02:44:17.564Z,8.00
2017-08-07T02:46:49.654Z,7.30
2017-08-07T02:49:21.492Z,8.20
2017-08-07T02:51:52.736Z,8.43
2017-08-07T02:54:23.776Z,7.90
2017-08-07T02:56:55.113Z,7.40
2017-08-07T02:59:26.162Z,8.47
2017-08-07T03:01:57.227Z,7.87
2017-08-07T03:04:28.294Z,8.30
2017-08-07T03:06:59.343Z,7.53
2017-08-07T03:09:30.403Z,8.53
2017-08-07T03:12:03.253Z,7.60
2017-08-07T03:14:34.578Z,7.40
2017-08-07T03:17:07.053Z,7.80
2017-08-07T03:19:38.141Z,7.50
2017-08-07T03:22:09.279Z,7.67
2017-08-07T03:24:40.398Z,7.57
2017-08-07T03:27:11.466Z,7.33
2017-08-07T03:29:42.545Z,7.73
2017-08-07T03:32:15.334Z,6.70
2017-08-07T03:34:47.302Z,7.40
2017-08-07T03:37:18.409Z,7.03
2017-08-07T03:39:49.521Z,7.93
2017-08-07T03:42:20.614Z,6.70
2017-08-07T03:44:51.658Z,7.40
2017-08-07T03:47:23.176Z,6.73
2017-08-07T03:49:54.221Z,7.17
2017-08-07T03:52:25.255Z,7.00
2017-08-07T03:54:56.317Z,7.80
2017-08-07T03:57:27.342Z,5.93
2017-08-07T03:59:58.612Z,7.03
2017-08-07T04:02:30.837Z,6.40
2017-08-07T04:05:04.367Z,6.53
2017-08-07T04:07:35.469Z,6.63
2017-08-07T04:12:29.375Z,6.00
2017-08-07T04:15:00.800Z,6.33
2017-08-07T04:17:32.329Z,6.30
2017-08-07T04:20:04.005Z,7.57
2017-08-07T04:22:35.091Z,6.73
2017-08-07T04:25:06.169Z,7.10
2017-08-07T04:27:37.231Z,6.77
2017-08-07T04:30:08.612Z,7.27
2017-08-07T04:32:39.667Z,6.43
2017-08-07T04:35:10.716Z,6.60
2017-08-07T04:37:42.403Z,7.53
2017-08-07T04:40:13.427Z,6.87
2017-08-07T04:42:44.504Z,8.10
2017-08-07T04:45:15.859Z,9.97
2017-08-07T04:47:46.914Z,7.57
2017-08-07T04:50:18.013Z,7.87
2017-08-07T04:52:49.526Z,7.43
2017-08-07T04:55:20.551Z,7.13
2017-08-07T04:57:51.607Z,6.80
2017-08-07T05:00:22.921Z,7.37
2017-08-07T05:02:53.978Z,7.50
2017-08-07T05:05:25.028Z,7.63
2017-08-07T05:07:56.545Z,7.53
2017-08-07T05:10:27.558Z,8.53
2017-08-07T05:12:58.645Z,7.77
2017-08-07T05:15:30.018Z,7.93
2017-08-07T05:18:01.039Z,8.27
2017-08-07T05:20:32.329Z,9.20
2017-08-07T05:23:03.409Z,10.90
2017-08-07T05:25:34.517Z,9.20
2017-08-07T05:28:06.834Z,8.40
2017-08-07T05:30:37.850Z,8.73
2017-08-07T05:33:08.995Z,8.70
2017-08-07T05:35:40.457Z,11.10
2017-08-07T05:38:11.568Z,9.10
2017-08-07T05:40:42.675Z,8.60
2017-08-07T05:43:14.196Z,8.53
2017-08-07T05:45:45.214Z,9.30
2017-08-07T05:48:16.540Z,9.80
2017-08-07T05:50:47.616Z,10.87
2017-08-07T05:53:18.628Z,9.73
2017-08-07T05:55:49.646Z,9.57
2017-08-07T05:58:20.690Z,8.90
2017-08-07T06:00:52.125Z,10.13
2017-08-07T06:03:23.190Z,10.60
2017-08-07T06:05:54.344Z,10.03
2017-08-07T06:08:25.809Z,10.43
2017-08-07T06:10:56.875Z,9.80
2017-08-07T06:13:28.248Z,9.80
2017-08-07T06:15:59.288Z,9.80
2017-08-07T06:18:30.314Z,9.07
2017-08-07T06:21:01.697Z,8.17
2017-08-07T06:23:32.770Z,9.53
2017-08-07T06:26:04.272Z,9.40
2017-08-07T06:28:35.771Z,8.80
2017-08-07T06:31:06.828Z,7.63
2017-08-07T06:33:37.854Z,8.27
2017-08-07T06:36:09.225Z,9.03
2017-08-07T06:38:40.304Z,7.40
2017-08-07T06:41:11.419Z,7.30
2017-08-07T06:43:42.513Z,9.10
2017-08-07T06:46:13.584Z,6.70
2017-08-07T06:48:44.960Z,9.47
2017-08-07T06:51:16.018Z,7.90
2017-08-07T06:53:47.030Z,8.43
2017-08-07T06:56:18.074Z,7.50
2017-08-07T06:58:49.154Z,8.03
2017-08-07T07:01:20.567Z,7.93
2017-08-07T07:03:51.619Z,7.07
2017-08-07T07:06:22.922Z,6.40
2017-08-07T07:08:53.942Z,5.80
2017-08-07T07:11:24.928Z,7.40
2017-08-07T07:13:56.444Z,6.80
2017-08-07T07:16:27.476Z,5.30
2017-08-07T07:18:58.485Z,5.63
2017-08-07T07:21:29.982Z,5.20
2017-08-07T07:24:01.040Z,6.00
2017-08-07T07:26:32.056Z,5.37
2017-08-07T07:29:03.420Z,5.00
2017-08-07T07:31:34.951Z,5.10
2017-08-07T07:34:07.251Z,4.30
2017-08-07T07:36:38.267Z,5.87
2017-08-07T07:39:09.320Z,4.90
2017-08-07T07:41:40.335Z,5.60
2017-08-07T07:44:11.400Z,6.20
2017-08-07T07:46:42.839Z,5.33
2017-08-07T07:49:13.887Z,5.77
2017-08-07T07:51:45.016Z,7.50
2017-08-07T07:54:16.474Z,5.83
2017-08-07T07:56:47.504Z,5.10
2017-08-07T07:59:18.829Z,4.47
2017-08-07T08:01:50.121Z,4.07
2017-08-07T08:04:21.194Z,4.33
2017-08-07T08:06:52.884Z,4.13
2017-08-07T08:09:23.900Z,4.00
2017-08-07T08:11:55.180Z,3.80
2017-08-07T08:14:26.627Z,4.60
2017-08-07T08:16:57.615Z,4.00
2017-08-07T08:19:28.679Z,3.63
2017-08-07T08:21:59.692Z,4.17
2017-08-07T08:27:10.824Z,3.73
2017-08-07T08:29:41.855Z,4.73
2017-08-07T08:32:13.310Z,4.30
2017-08-07T08:34:44.322Z,7.63
2017-08-07T08:37:15.355Z,6.63
2017-08-07T08:39:46.738Z,4.33
2017-08-07T08:42:17.751Z,3.73
2017-08-07T08:44:48.787Z,4.43
2017-08-07T08:47:20.140Z,3.30
2017-08-07T08:49:51.139Z,3.33
2017-08-07T08:52:22.431Z,8.80
2017-08-07T08:54:53.446Z,6.17
2017-08-07T08:57:24.504Z,4.47
2017-08-07T08:59:56.799Z,4.03
2017-08-07T09:02:27.835Z,4.23
2017-08-07T09:04:58.871Z,2.97
2017-08-07T09:07:30.248Z,2.23
2017-08-07T09:10:02.665Z,4.03
2017-08-07T09:12:33.741Z,4.60
2017-08-07T09:15:04.747Z,2.33
2017-08-07T09:17:38.656Z,3.13
2017-08-07T09:20:09.684Z,4.00
2017-08-07T09:22:40.702Z,2.57
2017-08-07T09:25:12.498Z,4.43
2017-08-07T09:27:43.507Z,2.53
2017-08-07T09:30:14.988Z,2.97
2017-08-07T09:32:46.474Z,2.47
2017-08-07T09:35:17.480Z,3.83
2017-08-07T09:37:48.500Z,1.90
2017-08-07T09:40:19.895Z,3.27
2017-08-07T09:42:50.925Z,2.53
2017-08-07T09:45:21.951Z,2.40
2017-08-07T09:47:54.473Z,4.57
2017-08-07T09:50:25.503Z,2.63
2017-08-07T09:52:56.563Z,5.40
2017-08-07T09:55:27.883Z,5.27
2017-08-07T09:57:58.920Z,1.90
2017-08-07T10:00:30.214Z,2.00
2017-08-07T10:03:01.256Z,2.90
2017-08-07T10:05:32.354Z,3.10
2017-08-07T10:08:04.228Z,5.03
2017-08-07T10:10:35.284Z,2.33
2017-08-07T10:13:06.325Z,1.40
2017-08-07T10:15:37.751Z,1.80
2017-08-07T10:18:08.792Z,2.50
2017-08-07T10:20:39.845Z,4.47
2017-08-07T10:23:11.312Z,1.93
2017-08-07T10:25:42.459Z,1.90
2017-08-07T10:28:13.608Z,1.87
2017-08-07T10:30:45.202Z,1.10
2017-08-07T10:33:16.360Z,1.20
2017-08-07T10:35:47.528Z,1.10
2017-08-07T10:38:18.992Z,1.70
2017-08-07T10:40:50.298Z,1.87
2017-08-07T10:43:21.793Z,1.87
2017-08-07T10:45:53.392Z,1.63
2017-08-07T10:48:24.748Z,2.47
2017-08-07T10:50:55.906Z,1.30
2017-08-07T10:53:27.416Z,1.33
2017-08-07T10:55:58.534Z,1.50
2017-08-07T10:58:29.684Z,1.10
2017-08-07T11:01:01.014Z,1.23
2017-08-07T11:03:32.502Z,1.33
2017-08-07T11:06:04.676Z,2.27
2017-08-07T11:08:36.229Z,1.60
2017-08-07T11:11:07.417Z,1.97
2017-08-07T11:13:38.769Z,1.60
2017-08-07T11:16:10.496Z,3.00
2017-08-07T11:18:41.718Z,1.30
2017-08-07T11:21:13.775Z,1.00
2017-08-07T11:23:45.514Z,1.40
2017-08-07T11:26:17.286Z,1.37
2017-08-07T11:28:48.673Z,1.83
2017-08-07T11:31:19.765Z,1.53
2017-08-07T11:33:50.829Z,1.33
2017-08-07T11:36:22.255Z,1.40
2017-08-07T11:38:53.339Z,1.57
2017-08-07T11:41:24.384Z,1.50
2017-08-07T11:43:55.716Z,1.87
2017-08-07T11:46:26.775Z,1.67
2017-08-07T11:48:58.001Z,1.87
2017-08-07T11:51:29.463Z,1.90
2017-08-07T11:54:00.569Z,2.03
2017-08-07T11:56:31.916Z,2.63
2017-08-07T11:59:02.993Z,2.90
2017-08-07T12:01:34.217Z,1.50
2017-08-07T12:04:06.542Z,2.20
2017-08-07T12:06:37.544Z,1.50
2017-08-07T12:09:08.548Z,1.47
2017-08-07T12:11:40.035Z,1.10
2017-08-07T12:14:11.082Z,1.43
2017-08-07T12:16:42.368Z,1.60
2017-08-07T12:19:13.428Z,1.30
2017-08-07T12:24:45.233Z,1.03
2017-08-07T12:27:16.270Z,1.50
2017-08-07T12:29:47.584Z,1.10
2017-08-07T12:32:19.023Z,1.33
2017-08-07T12:34:50.060Z,1.20
2017-08-07T12:37:21.068Z,2.13
2017-08-07T12:39:52.408Z,1.80
2017-08-07T12:42:23.457Z,1.10
2017-08-07T12:44:54.588Z,1.40
2017-08-07T12:47:25.992Z,1.23
2017-08-07T12:49:57.140Z,1.47
2017-08-07T12:52:28.440Z,1.10
2017-08-07T12:54:59.533Z,1.80
2017-08-07T12:57:30.764Z,4.27
2017-08-07T13:00:02.956Z,2.00
2017-08-07T13:02:33.988Z,1.70
2017-08-07T13:05:05.172Z,1.60
2017-08-07T13:07:36.392Z,2.13
2017-08-07T13:10:07.709Z,1.37
2017-08-07T13:12:39.337Z,1.50
2017-08-07T13:15:10.450Z,2.53
2017-08-07T13:20:02.826Z,1.70
2017-08-07T13:22:34.147Z,1.73
2017-08-07T13:25:05.324Z,1.60
2017-08-07T13:27:36.852Z,1.53
2017-08-07T13:30:07.919Z,1.73
2017-08-07T13:32:39.034Z,1.60
2017-08-07T13:35:10.572Z,3.10
2017-08-07T13:37:41.757Z,2.60
2017-08-07T13:40:13.121Z,2.40
2017-08-07T13:42:44.211Z,2.42
2017-08-07T13:45:15.314Z,1.92
2017-08-07T13:47:46.813Z,1.27
2017-08-07T13:50:18.003Z,1.20
2017-08-07T13:52:49.125Z,1.67
2017-08-07T13:55:20.606Z,1.87
2017-08-07T13:57:51.715Z,2.05
2017-08-07T14:00:23.044Z,1.35
2017-08-07T14:02:54.123Z,1.75
2017-08-07T14:05:25.340Z,2.22
2017-08-07T14:07:57.005Z,1.48
2017-08-07T14:10:28.148Z,1.60
2017-08-07T14:12:59.234Z,2.17
2017-08-07T14:15:30.968Z,1.58
2017-08-07T14:18:02.580Z,1.90
2017-08-07T14:20:34.188Z,2.45
2017-08-07T14:23:05.478Z,1.70
2017-08-07T14:25:36.737Z,1.70
2017-08-07T14:28:08.256Z,2.90
2017-08-07T14:30:39.465Z,1.98
2017-08-07T14:33:10.576Z,2.00
2017-08-07T14:35:42.328Z,1.58
2017-08-07T14:38:13.430Z,2.33
2017-08-07T14:40:44.542Z,1.55
2017-08-07T14:43:16.205Z,1.98
2017-08-07T14:45:47.378Z,1.42
2017-08-07T14:48:18.757Z,1.58
2017-08-07T14:50:49.874Z,1.67
2017-08-07T14:53:21.641Z,1.90
2017-08-07T14:55:53.377Z,1.70
2017-08-07T14:58:24.563Z,1.90
2017-08-07T15:00:55.787Z,1.80
2017-08-07T15:03:27.604Z,2.33
2017-08-07T15:05:58.713Z,2.15
2017-08-07T15:08:30.034Z,1.62
2017-08-07T15:11:01.179Z,2.12
2017-08-07T15:13:32.194Z,2.25
2017-08-07T15:16:03.970Z,2.03
2017-08-07T15:18:34.982Z,2.30
2017-08-07T15:21:06.530Z,2.40
2017-08-07T15:23:37.530Z,2.00
2017-08-07T15:26:08.601Z,2.80
2017-08-07T15:28:39.696Z,3.05
2017-08-07T15:31:10.703Z,1.85
2017-08-07T15:33:42.118Z,2.55
2017-08-07T15:36:13.145Z,1.90
2017-08-07T15:38:44.148Z,1.87
2017-08-07T15:41:15.171Z,1.70
2017-08-07T15:43:46.176Z,2.72
2017-08-07T15:46:17.194Z,2.65
2017-08-07T15:48:48.720Z,1.60
2017-08-07T15:51:19.786Z,3.83
2017-08-07T15:53:50.877Z,2.85
2017-08-07T15:56:22.234Z,1.92
2017-08-07T15:58:53.265Z,2.78
2017-08-07T16:01:24.655Z,2.42
2017-08-07T16:03:55.711Z,2.67
2017-08-07T16:06:27.104Z,2.28
2017-08-07T16:08:58.160Z,1.77
2017-08-07T16:11:29.231Z,1.73
2017-08-07T16:14:00.832Z,1.12
2017-08-07T16:16:31.877Z,1.25
2017-08-07T16:19:03.221Z,2.70
2017-08-07T16:21:34.240Z,1.55
2017-08-07T16:24:06.037Z,1.87
2017-08-07T16:26:37.382Z,3.45
2017-08-07T16:29:08.393Z,1.27
2017-08-07T16:31:39.459Z,3.80
2017-08-07T16:34:10.524Z,2.70
2017-08-07T16:36:41.599Z,2.60
2017-08-07T16:39:12.983Z,1.50
2017-08-07T16:41:43.989Z,1.75
2017-08-07T16:44:15.055Z,2.87
2017-08-07T16:46:46.140Z,1.50
2017-08-07T16:49:17.172Z,2.15
2017-08-07T16:51:49.685Z,5.07
2017-08-07T16:54:20.805Z,2.70
2017-08-07T16:56:51.842Z,1.50
2017-08-07T16:59:23.227Z,2.33
2017-08-07T17:01:54.319Z,2.17
2017-08-07T17:04:25.426Z,3.92
2017-08-07T17:06:57.077Z,3.42
2017-08-07T17:09:28.189Z,3.60
2017-08-07T17:11:59.240Z,3.63
2017-08-07T17:14:30.604Z,2.90
2017-08-07T17:17:01.706Z,1.90
2017-08-07T17:19:33.107Z,1.60
2017-08-07T17:22:04.936Z,1.63
2017-08-07T17:24:36.052Z,1.80
2017-08-07T17:27:07.158Z,3.97
2017-08-07T17:29:38.210Z,5.53
2017-08-07T17:32:09.755Z,3.03
2017-08-07T17:34:40.819Z,3.77
2017-08-07T17:37:11.840Z,4.57
2017-08-07T17:39:42.915Z,2.53
2017-08-07T17:42:13.948Z,2.60
2017-08-07T17:44:45.232Z,2.57
2017-08-07T17:47:16.243Z,2.77
2017-08-07T17:49:47.344Z,9.83
2017-08-07T17:52:18.352Z,11.37
2017-08-07T17:54:49.428Z,9.33
2017-08-07T17:57:20.949Z,7.17
2017-08-07T17:59:52.045Z,9.33
2017-08-07T18:02:23.106Z,14.47
2017-08-07T18:04:54.628Z,11.07
2017-08-07T18:07:25.747Z,11.77
2017-08-07T18:09:57.135Z,12.80
2017-08-07T18:12:29.367Z,8.47
2017-08-07T18:15:00.483Z,8.57
2017-08-07T18:17:32.960Z,8.30
2017-08-07T18:20:04.517Z,9.43
2017-08-07T18:22:35.578Z,5.40
2017-08-07T18:25:07.160Z,7.27
2017-08-07T18:27:38.263Z,7.37
2017-08-07T18:30:09.557Z,8.70
2017-08-07T18:32:40.633Z,11.10
2017-08-07T18:35:11.735Z,7.30
2017-08-07T18:37:43.105Z,10.20
2017-08-07T18:40:14.270Z,6.90
2017-08-07T18:42:45.281Z,8.03
2017-08-07T18:45:16.333Z,8.83
2017-08-07T18:47:47.490Z,8.20
2017-08-07T18:50:19.017Z,7.00
2017-08-07T18:52:50.066Z,7.40
2017-08-07T18:55:21.533Z,6.57
2017-08-07T18:57:52.750Z,6.83
2017-08-07T19:00:23.834Z,6.40
2017-08-07T19:02:55.367Z,8.17
2017-08-07T19:05:26.519Z,8.97
2017-08-07T19:07:57.654Z,6.30
2017-08-07T19:10:28.864Z,6.50
2017-08-07T19:12:59.975Z,8.07
2017-08-07T19:15:31.347Z,8.30
2017-08-07T19:18:02.935Z,6.90
2017-08-07T19:20:34.308Z,4.70
2017-08-07T19:23:05.607Z,5.00
2017-08-07T19:25:36.807Z,4.20
2017-08-07T19:28:08.309Z,3.47
2017-08-07T19:30:39.318Z,3.67
2017-08-07T19:33:10.354Z,2.57
2017-08-07T19:35:41.746Z,3.40
2017-08-07T19:38:12.824Z,3.70
2017-08-07T19:40:43.857Z,2.20
2017-08-07T19:43:16.209Z,2.90
2017-08-07T19:45:47.252Z,3.83
2017-08-07T19:48:19.124Z,3.17
2017-08-07T19:50:50.150Z,2.67
2017-08-07T19:53:21.291Z,3.00
2017-08-07T19:55:52.827Z,2.90
2017-08-07T19:58:23.882Z,2.60
2017-08-07T20:00:55.045Z,2.77
2017-08-07T20:03:26.118Z,3.50
2017-08-07T20:05:57.176Z,3.50
2017-08-07T20:08:28.854Z,3.27
2017-08-07T20:10:59.928Z,3.30
2017-08-07T20:13:30.949Z,3.60
2017-08-07T20:16:02.870Z,3.23
2017-08-07T20:18:33.903Z,3.00
2017-08-07T20:21:05.446Z,3.30
2017-08-07T20:23:36.502Z,3.07
2017-08-07T20:26:07.572Z,3.20
2017-08-07T20:28:39.126Z,3.00
2017-08-07T20:31:10.222Z,3.50
2017-08-07T20:33:41.541Z,3.53
2017-08-07T20:36:12.660Z,4.23
2017-08-07T20:38:43.713Z,2.90
2017-08-07T20:41:15.151Z,3.07
2017-08-07T20:43:46.161Z,3.17
2017-08-07T20:46:17.296Z,4.50
2017-08-07T20:48:49.358Z,3.50
2017-08-07T20:51:20.457Z,3.60
2017-08-07T20:53:51.520Z,3.20
2017-08-07T20:56:22.968Z,3.93
2017-08-07T20:58:54.000Z,3.73
2017-08-07T21:01:25.002Z,5.43
2017-08-07T21:03:56.435Z,4.13
2017-08-07T21:06:27.491Z,5.23
2017-08-07T21:08:58.525Z,6.27
2017-08-07T21:11:30.067Z,7.87
2017-08-07T21:14:01.109Z,4.53
2017-08-07T21:16:32.159Z,6.50
2017-08-07T21:19:03.555Z,5.20
2017-08-07T21:21:34.601Z,7.27
2017-08-07T21:24:06.398Z,5.57
2017-08-07T21:26:37.423Z,4.50
2017-08-07T21:29:08.531Z,4.27
2017-08-07T21:31:39.847Z,4.33
2017-08-07T21:34:10.902Z,4.30
2017-08-07T21:36:41.938Z,4.60
2017-08-07T21:39:13.346Z,3.60
2017-08-07T21:41:44.352Z,3.80
2017-08-07T21:44:15.468Z,5.10
2017-08-07T21:46:46.951Z,3.60
2017-08-07T21:49:17.967Z,4.40
2017-08-07T21:51:49.250Z,4.10
2017-08-07T21:54:20.311Z,3.77
2017-08-07T21:56:51.303Z,3.73
2017-08-07T21:59:22.821Z,4.50
2017-08-07T22:01:53.841Z,4.00
2017-08-07T22:04:24.888Z,5.10
2017-08-07T22:06:56.275Z,3.80
2017-08-07T22:09:27.292Z,3.90
2017-08-07T22:11:58.292Z,3.40
2017-08-07T22:14:29.314Z,3.77
2017-08-07T22:17:00.361Z,3.90
2017-08-07T22:19:31.870Z,4.23
2017-08-07T22:22:04.709Z,8.13
2017-08-07T22:24:35.721Z,4.03
2017-08-07T22:27:06.820Z,4.33
2017-08-07T22:29:37.880Z,7.67
2017-08-07T22:32:09.471Z,8.40
2017-08-07T22:34:40.540Z,9.27
2017-08-07T22:37:11.575Z,8.00
2017-08-07T22:39:42.639Z,8.00
2017-08-07T22:42:13.709Z,7.40
2017-08-07T22:44:45.132Z,5.77
2017-08-07T22:47:16.151Z,7.07
2017-08-07T22:49:47.187Z,5.50
2017-08-07T22:52:18.498Z,6.13
2017-08-07T22:54:49.490Z,5.73
2017-08-07T22:57:20.522Z,5.00
2017-08-07T22:59:51.854Z,4.40
2017-08-07T23:02:23.047Z,4.33
2017-08-07T23:04:54.154Z,4.00
2017-08-07T23:07:25.622Z,4.50
2017-08-07T23:09:56.665Z,4.17
2017-08-07T23:12:27.725Z,4.13
2017-08-07T23:14:59.309Z,4.20
2017-08-07T23:17:30.435Z,3.50
2017-08-07T23:20:03.111Z,4.33
2017-08-07T23:22:34.580Z,3.83
2017-08-07T23:25:05.579Z,3.90
2017-08-07T23:27:36.959Z,4.10
2017-08-07T23:30:08.699Z,4.10
2017-08-07T23:32:39.771Z,4.20
2017-08-07T23:35:10.843Z,4.70
2017-08-07T23:37:42.259Z,4.30
2017-08-07T23:40:13.335Z,4.00
2017-08-07T23:42:44.464Z,3.90
2017-08-07T23:45:15.481Z,4.63
2017-08-07T23:47:46.538Z,4.10
2017-08-07T23:50:17.957Z,4.63
2017-08-07T23:52:49.041Z,5.00
2017-08-07T23:55:20.434Z,4.27
2017-08-07T23:57:51.584Z,4.70
